Time;durP1;ratioP1;P1;durP2;ratioP2;P2;SDS_P1;SDS_P2;PMS_P1;PMS_P2;Temp;Humidity;BMP_temperature;BMP_pressure;BME280_temperature;BME280_humidity;BME280_pressure;Samples;Min_cycle;Max_cycle;Signal;HPM_P1;HPM_P2
2022/07/10 00:01:52;;;;;;;5.05;0.80;;;14.60;99.90;;;;;;5032882;28;20033;-75
2022/07/10 00:04:18;;;;;;;5.05;1.00;;;14.60;99.90;;;;;;5018769;28;20037;-76
2022/07/10 00:06:46;;;;;;;9.02;1.30;;;14.50;99.90;;;;;;5035275;28;20428;-76
2022/07/10 00:09:13;;;;;;;8.13;1.33;;;14.50;99.90;;;;;;5034520;28;20042;-76
2022/07/10 00:11:40;;;;;;;4.00;0.82;;;14.50;99.90;;;;;;5035983;28;20481;-76
2022/07/10 00:14:05;;;;;;;;;;;14.40;99.90;;;;;;5032986;28;20060;-76
2022/07/10 00:16:31;;;;;;;7.18;0.75;;;14.50;99.90;;;;;;5034710;28;19928;-76
2022/07/10 00:18:57;;;;;;;9.32;1.60;;;14.50;99.90;;;;;;4999709;28;20061;-76
2022/07/10 00:21:22;;;;;;;6.28;1.30;;;14.50;99.90;;;;;;5033891;28;20381;-75
2022/07/10 00:23:48;;;;;;;5.43;0.70;;;14.50;99.90;;;;;;5019019;28;20033;-76
2022/07/10 00:26:14;;;;;;;5.47;1.30;;;14.50;99.90;;;;;;5035854;28;20044;-76
2022/07/10 00:28:39;;;;;;;4.75;1.08;;;14.50;99.90;;;;;;5034670;28;20489;-76
2022/07/10 00:31:05;;;;;;;8.07;1.33;;;14.40;99.90;;;;;;5016710;28;20064;-76
2022/07/10 00:33:32;;;;;;;7.43;1.10;;;14.30;99.90;;;;;;5035144;28;20052;-75
2022/07/10 00:35:58;;;;;;;3.67;1.02;;;14.20;99.90;;;;;;5017358;28;20053;-76
2022/07/10 00:38:24;;;;;;;6.32;1.00;;;14.20;99.90;;;;;;5017421;28;20128;-75
2022/07/10 00:40:50;;;;;;;8.20;1.08;;;14.20;99.90;;;;;;5034297;28;20068;-75
2022/07/10 00:43:16;;;;;;;5.43;1.10;;;14.20;99.90;;;;;;5034987;28;20037;-75
2022/07/10 00:45:41;;;;;;;4.22;1.13;;;14.20;99.90;;;;;;5033513;28;20048;-75
2022/07/10 00:48:09;;;;;;;5.82;1.10;;;14.20;99.90;;;;;;5035402;28;20057;-76
2022/07/10 00:50:35;;;;;;;7.80;1.27;;;14.30;99.90;;;;;;5016244;28;20444;-76
2022/07/10 00:53:04;;;;;;;9.40;1.60;;;14.30;99.90;;;;;;5035109;28;21701;-76
2022/07/10 00:55:32;;;;;;;13.68;2.20;;;14.30;99.90;;;;;;5032117;28;20382;-75
2022/07/10 00:57:59;;;;;;;10.15;1.55;;;14.40;99.90;;;;;;5033854;28;20045;-76
2022/07/10 01:00:26;;;;;;;6.10;1.25;;;14.30;99.90;;;;;;5002044;28;20045;-75
2022/07/10 01:02:52;;;;;;;9.50;1.70;;;14.30;99.90;;;;;;5033554;28;20037;-75
2022/07/10 01:05:18;;;;;;;7.38;1.48;;;14.30;99.90;;;;;;5033743;28;20041;-76
2022/07/10 01:07:44;;;;;;;8.15;1.10;;;14.20;99.90;;;;;;5016240;28;20043;-76
2022/07/10 01:10:10;;;;;;;7.53;1.30;;;14.30;99.90;;;;;;5032355;28;20710;-76
2022/07/10 01:12:36;;;;;;;8.55;1.30;;;14.20;99.90;;;;;;5034058;28;20069;-76
2022/07/10 01:15:02;;;;;;;7.28;1.42;;;14.20;99.90;;;;;;5016718;28;20045;-76
2022/07/10 01:17:29;;;;;;;8.93;1.40;;;14.10;99.90;;;;;;5031946;28;20071;-76
2022/07/10 01:19:55;;;;;;;6.18;1.30;;;14.10;99.90;;;;;;5034197;28;20036;-75
2022/07/10 01:22:21;;;;;;;5.20;1.15;;;14.10;99.90;;;;;;5031272;28;20486;-75
2022/07/10 01:24:47;;;;;;;8.48;1.45;;;14.00;99.90;;;;;;5016389;28;20044;-75
2022/07/10 01:27:12;;;;;;;4.88;1.20;;;14.10;99.90;;;;;;5015085;28;20041;-76
2022/07/10 01:29:39;;;;;;;6.67;1.20;;;14.10;99.90;;;;;;5031496;28;20539;-76
2022/07/10 01:32:05;;;;;;;7.78;1.38;;;14.00;99.90;;;;;;5034834;28;20334;-75
2022/07/10 01:34:31;;;;;;;4.50;1.00;;;14.00;99.90;;;;;;5031227;28;20084;-75
2022/07/10 01:36:56;;;;;;;6.15;1.08;;;14.00;99.90;;;;;;5034258;28;20045;-75
2022/07/10 01:39:22;;;;;;;5.00;1.33;;;14.00;99.90;;;;;;5016936;28;20068;-76
2022/07/10 01:41:48;;;;;;;5.17;1.00;;;14.00;99.90;;;;;;5018135;28;20039;-76
2022/07/10 01:44:14;;;;;;;6.07;1.40;;;13.90;99.90;;;;;;5015271;28;20709;-76
2022/07/10 01:46:48;;;;;;;6.45;1.00;;;14.00;99.90;;;;;;5033777;28;20283;-77
2022/07/10 01:49:14;;;;;;;7.15;1.60;;;14.00;99.90;;;;;;5016672;28;20037;-76
2022/07/10 01:51:40;;;;;;;8.07;1.33;;;14.00;99.90;;;;;;5034649;28;20489;-76
2022/07/10 01:54:06;;;;;;;6.20;1.15;;;14.00;99.90;;;;;;5030344;28;20043;-75
2022/07/10 01:56:32;;;;;;;6.47;1.00;;;14.00;99.90;;;;;;5017434;28;20127;-76
2022/07/10 01:59:00;;;;;;;7.40;1.02;;;14.00;99.90;;;;;;5032250;28;20045;-76
2022/07/10 02:01:25;;;;;;;6.57;1.25;;;14.00;99.90;;;;;;5032714;28;20045;-76
2022/07/10 02:06:35;;;;;;;4.70;0.93;;;13.90;99.90;;;;;;5019868;28;20052;-76
2022/07/10 02:09:01;;;;;;;8.38;1.63;;;13.90;99.90;;;;;;5033442;28;20040;-76
2022/07/10 02:11:26;;;;;;;6.70;1.13;;;13.90;99.90;;;;;;5032485;28;20045;-76
2022/07/10 02:13:52;;;;;;;6.75;0.90;;;13.80;99.90;;;;;;5032579;28;20433;-76
2022/07/10 02:16:18;;;;;;;5.13;1.10;;;13.80;99.90;;;;;;5030386;28;20124;-75
2022/07/10 02:18:43;;;;;;;7.10;1.17;;;13.80;99.90;;;;;;5032144;28;20052;-75
2022/07/10 02:21:09;;;;;;;6.33;1.70;;;13.70;99.90;;;;;;5029651;28;20513;-75
2022/07/10 02:23:35;;;;;;;5.17;1.13;;;13.70;99.90;;;;;;5030346;28;20660;-76
2022/07/10 02:26:01;;;;;;;8.23;1.13;;;13.70;99.90;;;;;;5030686;28;20302;-76
2022/07/10 02:28:28;;;;;;;8.20;1.17;;;13.70;99.90;;;;;;5028862;28;20048;-75
2022/07/10 02:30:53;;;;;;;;;;;13.70;99.90;;;;;;5030301;28;20051;-76
2022/07/10 02:33:19;;;;;;;6.10;1.05;;;13.60;99.90;;;;;;5028941;28;19996;-76
2022/07/10 02:35:44;;;;;;;7.60;1.30;;;13.60;99.90;;;;;;5016077;28;20037;-76
2022/07/10 02:38:10;;;;;;;4.07;1.07;;;13.60;99.90;;;;;;5030597;28;20452;-76
2022/07/10 02:40:36;;;;;;;5.68;1.10;;;13.70;99.90;;;;;;5031881;28;20374;-77
2022/07/10 02:43:01;;;;;;;6.10;1.27;;;13.70;99.90;;;;;;5016496;28;20045;-75
2022/07/10 02:45:27;;;;;;;9.77;1.70;;;13.70;99.90;;;;;;5030203;28;20779;-75
2022/07/10 02:47:53;;;;;;;12.15;1.48;;;13.70;99.90;;;;;;5029824;28;20084;-76
2022/07/10 02:50:18;;;;;;;5.43;1.10;;;13.80;99.90;;;;;;5032114;28;20029;-76
2022/07/10 02:52:44;;;;;;;8.53;1.20;;;13.80;99.90;;;;;;5023190;28;20295;-76
2022/07/10 02:55:10;;;;;;;8.97;1.00;;;13.80;99.90;;;;;;5033582;28;20387;-75
2022/07/10 02:57:35;;;;;;;6.88;1.20;;;13.80;99.90;;;;;;5017214;28;20105;-76
2022/07/10 03:00:01;;;;;;;7.57;1.38;;;13.90;99.90;;;;;;5037935;28;20458;-77
2022/07/10 03:02:27;;;;;;;6.05;1.10;;;13.90;99.90;;;;;;5031911;28;20038;-76
2022/07/10 03:04:52;;;;;;;3.05;1.00;;;13.90;99.90;;;;;;5015704;28;20090;-76
2022/07/10 03:07:18;;;;;;;5.60;1.70;;;13.90;99.90;;;;;;5016926;28;20037;-76
2022/07/10 03:09:44;;;;;;;10.10;1.45;;;13.80;99.90;;;;;;5031940;28;20044;-77
2022/07/10 03:12:09;;;;;;;6.13;1.10;;;13.80;99.90;;;;;;5031458;28;20045;-75
2022/07/10 03:14:35;;;;;;;7.90;1.40;;;13.80;99.90;;;;;;5032949;28;20319;-75
2022/07/10 03:17:01;;;;;;;10.48;1.55;;;13.80;99.90;;;;;;5031459;28;20124;-75
2022/07/10 03:19:26;;;;;;;10.40;1.58;;;13.90;99.90;;;;;;5031529;28;20048;-76
2022/07/10 03:21:52;;;;;;;5.85;1.15;;;13.90;99.90;;;;;;5029758;28;20037;-76
2022/07/10 03:24:18;;;;;;;4.47;1.77;;;13.90;99.90;;;;;;5029258;28;20398;-76
2022/07/10 03:26:44;;;;;;;10.13;1.35;;;14.00;99.90;;;;;;5015799;28;20437;-76
2022/07/10 03:29:10;;;;;;;;;;;14.00;99.90;;;;;;5030403;28;20046;-76
2022/07/10 03:31:36;;;;;;;6.07;1.17;;;14.00;99.90;;;;;;5048924;28;19923;-77
2022/07/10 03:34:01;;;;;;;5.57;1.10;;;14.10;99.90;;;;;;5014248;28;20084;-75
2022/07/10 03:36:27;;;;;;;7.35;1.58;;;14.10;99.90;;;;;;5015983;28;20073;-75
2022/07/10 03:38:53;;;;;;;7.37;1.63;;;14.20;99.90;;;;;;5030600;28;20040;-76
2022/07/10 03:41:18;;;;;;;8.48;1.20;;;14.20;99.90;;;;;;5030414;28;20034;-76
2022/07/10 03:43:44;;;;;;;4.23;1.20;;;14.30;99.90;;;;;;5031579;28;20055;-76
2022/07/10 03:46:10;;;;;;;7.90;1.50;;;14.30;99.90;;;;;;5032523;28;20320;-76
2022/07/10 03:48:35;;;;;;;5.30;1.27;;;14.40;99.90;;;;;;5015813;28;20075;-75
2022/07/10 03:51:01;;;;;;;9.67;1.13;;;14.40;99.90;;;;;;5012368;28;20046;-75
2022/07/10 03:53:27;;;;;;;7.28;1.48;;;14.50;99.90;;;;;;5032623;28;20275;-76
2022/07/10 03:55:54;;;;;;;8.10;1.52;;;14.50;99.90;;;;;;5030836;28;20064;-75
2022/07/10 03:58:20;;;;;;;9.85;1.45;;;14.50;99.90;;;;;;5012151;28;20037;-75
2022/07/10 04:00:45;;;;;;;9.73;1.67;;;14.60;99.90;;;;;;5042569;28;20409;-75
2022/07/10 04:03:12;;;;;;;5.60;1.00;;;14.60;99.90;;;;;;5015497;28;20048;-76
2022/07/10 04:05:38;;;;;;;9.90;1.65;;;14.60;99.90;;;;;;5032185;28;20045;-76
2022/07/10 04:08:04;;;;;;;8.50;1.30;;;14.70;99.90;;;;;;5031392;28;20045;-76
2022/07/10 04:10:31;;;;;;;4.97;1.15;;;14.70;99.90;;;;;;5036504;28;20758;-76
2022/07/10 04:12:56;;;;;;;;;;;14.70;99.90;;;;;;5015504;28;20090;-76
2022/07/10 04:15:22;;;;;;;7.70;1.60;;;14.70;99.90;;;;;;5022173;28;20018;-76
2022/07/10 04:17:49;;;;;;;11.80;1.58;;;14.80;99.90;;;;;;5025039;28;20505;-76
2022/07/10 04:20:16;;;;;;;;;;;14.80;99.90;;;;;;5001168;28;20083;-76
2022/07/10 04:22:42;;;;;;;9.18;2.38;;;14.80;99.90;;;;;;5022647;28;19999;-76
2022/07/10 04:25:08;;;;;;;9.57;1.75;;;14.80;99.90;;;;;;5017118;28;20046;-76
2022/07/10 04:27:34;;;;;;;12.65;1.67;;;14.80;99.90;;;;;;5025254;28;20045;-76
2022/07/10 04:30:00;;;;;;;11.88;1.52;;;14.80;99.90;;;;;;5006108;28;20057;-76
2022/07/10 04:32:27;;;;;;;10.23;1.77;;;14.80;99.90;;;;;;5024652;28;20038;-76
2022/07/10 04:34:53;;;;;;;9.70;2.00;;;14.80;99.90;;;;;;5022457;28;20104;-76
2022/07/10 04:37:19;;;;;;;9.25;1.60;;;14.80;99.90;;;;;;5024338;28;20437;-76
2022/07/10 04:39:44;;;;;;;9.07;1.43;;;14.90;99.90;;;;;;5011595;28;20038;-76
2022/07/10 04:42:10;;;;;;;10.73;1.50;;;14.90;99.90;;;;;;5000905;28;20285;-76
2022/07/10 04:44:36;;;;;;;9.75;1.50;;;14.90;99.90;;;;;;5025175;28;20034;-76
2022/07/10 04:47:03;;;;;;;6.65;1.75;;;15.00;99.90;;;;;;5005777;28;20124;-76
2022/07/10 04:49:29;;;;;;;11.55;1.70;;;15.00;99.90;;;;;;5005281;28;20046;-76
2022/07/10 04:51:58;;;;;;;9.13;1.33;;;15.10;99.90;;;;;;5017525;28;20457;-76
2022/07/10 04:54:24;;;;;;;10.23;1.83;;;15.10;99.90;;;;;;5021307;28;20037;-76
2022/07/10 04:56:49;;;;;;;8.13;1.40;;;15.20;99.90;;;;;;5005462;28;20048;-75
2022/07/10 04:59:15;;;;;;;10.05;1.23;;;15.20;99.90;;;;;;5016486;28;20042;-75
2022/07/10 05:01:41;;;;;;;7.80;1.42;;;15.30;99.90;;;;;;5024224;28;20475;-76
2022/07/10 05:04:08;;;;;;;7.93;1.38;;;15.30;99.90;;;;;;5016551;28;20041;-76
2022/07/10 05:06:34;;;;;;;5.35;1.63;;;15.30;99.90;;;;;;5020296;28;20057;-77
2022/07/10 05:09:00;;;;;;;3.97;1.00;;;15.40;99.90;;;;;;5019795;28;20505;-76
2022/07/10 05:11:26;;;;;;;5.20;1.25;;;15.40;99.90;;;;;;5003434;28;20444;-74
2022/07/10 05:13:52;;;;;;;5.80;1.80;;;15.40;99.90;;;;;;5023920;28;20045;-76
2022/07/10 05:16:18;;;;;;;7.43;1.30;;;15.40;99.90;;;;;;5023815;28;20375;-76
2022/07/10 05:18:44;;;;;;;6.30;1.15;;;15.50;99.90;;;;;;5003501;28;20375;-76
2022/07/10 05:21:10;;;;;;;;;;;15.50;99.90;;;;;;5019960;28;20410;-76
2022/07/10 05:23:37;;;;;;;5.15;1.20;;;15.40;99.90;;;;;;5018996;28;19917;-75
2022/07/10 05:26:03;;;;;;;6.72;1.50;;;15.50;99.90;;;;;;5017726;28;20441;-75
2022/07/10 05:28:28;;;;;;;7.55;1.30;;;15.50;99.90;;;;;;5007399;28;20045;-75
2022/07/10 05:30:54;;;;;;;5.45;1.30;;;15.50;99.90;;;;;;4989416;28;20394;-75
2022/07/10 05:33:20;;;;;;;7.13;1.27;;;15.50;99.90;;;;;;5018896;28;20050;-76
2022/07/10 05:35:45;;;;;;;11.80;1.77;;;15.50;99.90;;;;;;5042832;28;20116;-76
2022/07/10 05:38:11;;;;;;;5.85;1.23;;;15.40;99.90;;;;;;5020145;28;20126;-75
2022/07/10 05:40:37;;;;;;;6.53;1.20;;;15.50;99.90;;;;;;5000590;28;20034;-76
2022/07/10 05:43:03;;;;;;;8.55;1.60;;;15.50;99.90;;;;;;5006470;28;20090;-76
2022/07/10 05:45:29;;;;;;;9.35;1.40;;;15.50;99.90;;;;;;5019469;28;20457;-75
2022/07/10 05:47:55;;;;;;;8.20;1.20;;;15.50;99.90;;;;;;5018303;28;20033;-76
2022/07/10 05:50:20;;;;;;;8.95;1.45;;;15.60;99.90;;;;;;5004306;28;20048;-76
2022/07/10 05:52:46;;;;;;;9.20;1.73;;;15.60;99.90;;;;;;5008191;28;20054;-76
2022/07/10 05:55:12;;;;;;;7.35;1.30;;;15.60;99.90;;;;;;5023711;28;21801;-76
2022/07/10 05:57:38;;;;;;;10.23;1.55;;;15.60;99.90;;;;;;5019249;28;20050;-76
2022/07/10 06:00:05;;;;;;;7.03;1.60;;;15.60;99.90;;;;;;5018415;28;20086;-76
2022/07/10 06:02:31;;;;;;;6.28;1.20;;;15.60;99.90;;;;;;5001759;28;20060;-77
2022/07/10 06:04:57;;;;;;;10.80;1.40;;;15.60;99.90;;;;;;5011160;28;20041;-76
2022/07/10 06:07:23;;;;;;;8.05;1.50;;;15.60;99.90;;;;;;5019006;28;20186;-76
2022/07/10 06:09:48;;;;;;;6.07;1.15;;;15.60;99.90;;;;;;5007412;28;20045;-76
2022/07/10 06:12:15;;;;;;;7.28;1.40;;;15.60;99.90;;;;;;5022609;28;20038;-76
2022/07/10 06:14:41;;;;;;;6.95;1.20;;;15.60;99.90;;;;;;5001749;28;20092;-76
2022/07/10 06:17:08;;;;;;;8.32;1.38;;;15.50;99.90;;;;;;4999337;28;20612;-76
2022/07/10 06:19:33;;;;;;;8.48;1.70;;;15.60;99.90;;;;;;5024157;28;20125;-76
2022/07/10 06:24:43;;;;;;;5.55;1.05;;;15.60;99.90;;;;;;5020588;28;20045;-76
2022/07/10 06:27:09;;;;;;;7.57;1.20;;;15.60;99.90;;;;;;5018017;28;20037;-75
2022/07/10 06:29:35;;;;;;;5.57;1.30;;;15.70;99.90;;;;;;5020817;28;20064;-75
2022/07/10 06:32:01;;;;;;;7.07;1.20;;;15.80;99.90;;;;;;5017705;28;20121;-76
2022/07/10 06:34:26;;;;;;;11.93;1.80;;;15.90;99.90;;;;;;5007798;28;20038;-76
2022/07/10 06:36:52;;;;;;;8.52;1.45;;;15.80;99.90;;;;;;5025404;28;20401;-76
2022/07/10 06:39:18;;;;;;;8.48;1.40;;;15.90;99.90;;;;;;5025357;28;20041;-76
2022/07/10 06:41:44;;;;;;;8.50;1.20;;;15.90;99.90;;;;;;5025181;28;20033;-76
2022/07/10 06:44:09;;;;;;;3.92;1.23;;;15.90;99.90;;;;;;5017647;28;20467;-75
2022/07/10 06:46:35;;;;;;;4.13;1.13;;;15.90;99.90;;;;;;5017814;28;20046;-76
2022/07/10 06:49:01;;;;;;;6.47;1.08;;;15.90;99.90;;;;;;5027808;28;20047;-76
2022/07/10 06:51:26;;;;;;;8.48;1.10;;;16.00;99.90;;;;;;5018041;28;20478;-76
2022/07/10 06:53:52;;;;;;;6.40;0.90;;;16.00;99.90;;;;;;4996997;28;20045;-76
2022/07/10 06:56:18;;;;;;;2.97;0.77;;;16.00;99.90;;;;;;5014202;28;20037;-76
2022/07/10 06:58:44;;;;;;;5.78;0.88;;;16.00;99.90;;;;;;5001057;28;20042;-75
2022/07/10 07:01:09;;;;;;;6.50;0.90;;;16.10;99.90;;;;;;5019677;28;20088;-77
2022/07/10 07:03:35;;;;;;;6.13;1.10;;;16.00;99.90;;;;;;5019369;28;20042;-75
2022/07/10 07:06:01;;;;;;;3.15;0.90;;;16.10;99.90;;;;;;5017521;28;20050;-76
2022/07/10 07:08:29;;;;;;;7.18;1.73;;;16.10;99.90;;;;;;5016498;28;20132;-75
2022/07/10 07:10:55;;;;;;;8.07;1.67;;;16.20;99.90;;;;;;5014879;28;20046;-76
2022/07/10 07:13:21;;;;;;;5.05;0.98;;;16.30;99.90;;;;;;5018370;28;20060;-76
2022/07/10 07:15:56;;;;;;;8.70;1.35;;;16.20;99.90;;;;;;5029768;28;20045;-77
2022/07/10 07:18:31;;;;;;;5.30;1.00;;;16.10;99.90;;;;;;5029171;28;20042;-77
2022/07/10 07:23:41;;;;;;;8.75;1.50;;;15.80;99.90;;;;;;5016088;28;20056;-76
2022/07/10 07:26:07;;;;;;;5.43;1.33;;;15.70;99.90;;;;;;4996707;28;20049;-75
2022/07/10 07:28:33;;;;;;;4.85;1.23;;;15.60;99.90;;;;;;5029288;28;20041;-77
2022/07/10 07:30:59;;;;;;;5.18;1.00;;;15.60;99.90;;;;;;5013172;28;20034;-76
2022/07/10 07:33:25;;;;;;;;;;;15.60;99.90;;;;;;5014618;28;20143;-75
2022/07/10 07:35:50;;;;;;;3.78;1.05;;;15.50;99.90;;;;;;5014597;28;19968;-75
2022/07/10 07:38:16;;;;;;;6.75;1.50;;;15.60;99.90;;;;;;5028426;28;20108;-75
2022/07/10 07:40:42;;;;;;;7.10;1.05;;;15.60;99.90;;;;;;5029404;28;20030;-76
2022/07/10 07:43:07;;;;;;;3.80;1.08;;;15.70;99.90;;;;;;5029050;28;20045;-77
2022/07/10 07:45:33;;;;;;;7.82;1.65;;;15.70;99.90;;;;;;5032738;28;20050;-75
2022/07/10 07:47:59;;;;;;;8.07;1.10;;;15.80;99.90;;;;;;5017107;28;20047;-77
2022/07/10 07:50:34;;;;;;;6.35;1.10;;;15.80;99.90;;;;;;5032105;28;20120;-75
2022/07/10 07:53:01;;;;;;;4.07;0.93;;;16.00;99.90;;;;;;5033334;28;20563;-75
2022/07/10 07:55:28;;;;;;;4.53;1.33;;;16.20;99.90;;;;;;5032226;28;20097;-76
2022/07/10 07:57:55;;;;;;;;;;;16.20;99.90;;;;;;5017003;28;20040;-75
2022/07/10 08:00:22;;;;;;;6.78;1.00;;;16.30;99.90;;;;;;5029830;28;19924;-75
2022/07/10 08:02:49;;;;;;;4.05;0.85;;;16.30;99.90;;;;;;5014707;28;20038;-76
2022/07/10 08:05:15;;;;;;;2.05;0.80;;;16.30;99.90;;;;;;5032721;28;20112;-77
2022/07/10 08:07:44;;;;;;;4.78;0.80;;;16.30;99.90;;;;;;5032663;28;20129;-76
2022/07/10 08:10:13;;;;;;;4.95;0.95;;;16.40;99.90;;;;;;5033204;28;20049;-77
2022/07/10 08:12:40;;;;;;;3.95;1.20;;;16.40;99.90;;;;;;5033011;28;20057;-76
2022/07/10 08:15:16;;;;;;;5.68;1.52;;;16.50;99.90;;;;;;5021477;28;20060;-78
2022/07/10 08:17:42;;;;;;;2.90;0.82;;;16.50;99.90;;;;;;5023416;28;20120;-78
2022/07/10 08:20:12;;;;;;;4.70;0.80;;;16.50;99.90;;;;;;5023486;28;20480;-77
2022/07/10 08:22:38;;;;;;;4.70;1.08;;;16.50;99.90;;;;;;5022535;28;20149;-78
2022/07/10 08:25:04;;;;;;;3.90;1.23;;;16.50;99.90;;;;;;5027958;28;20033;-79
2022/07/10 08:27:29;;;;;;;5.10;1.38;;;16.40;99.90;;;;;;5022655;28;20050;-77
2022/07/10 08:29:55;;;;;;;7.15;0.95;;;16.40;99.90;;;;;;5027922;28;20044;-78
2022/07/10 08:32:21;;;;;;;4.63;0.60;;;16.50;99.90;;;;;;5030653;28;20034;-77
2022/07/10 08:34:48;;;;;;;3.83;0.55;;;16.50;99.90;;;;;;5026006;28;20049;-77
2022/07/10 08:37:14;;;;;;;3.33;0.85;;;16.50;99.90;;;;;;5026596;28;20501;-78
2022/07/10 08:39:40;;;;;;;1.75;0.40;;;16.70;99.90;;;;;;5023332;28;20091;-77
2022/07/10 08:42:07;;;;;;;1.85;0.52;;;16.80;99.90;;;;;;5022057;28;20445;-75
2022/07/10 08:44:34;;;;;;;2.65;0.43;;;16.80;99.90;;;;;;5016675;28;20053;-76
2022/07/10 08:47:00;;;;;;;5.40;0.80;;;16.80;99.90;;;;;;5024433;28;20054;-75
2022/07/10 08:49:30;;;;;;;2.05;0.50;;;16.80;99.90;;;;;;5019007;28;20483;-76
2022/07/10 08:52:04;;;;;;;4.03;0.55;;;16.90;99.90;;;;;;5024530;28;20167;-76
2022/07/10 08:54:31;;;;;;;3.15;0.60;;;17.10;99.90;;;;;;5019391;28;20096;-77
2022/07/10 08:56:58;;;;;;;2.80;0.52;;;17.20;99.90;;;;;;5015997;28;20049;-76
2022/07/10 08:59:24;;;;;;;3.58;0.50;;;17.30;99.90;;;;;;5019011;28;20079;-77
2022/07/10 09:01:50;;;;;;;;;;;17.30;99.90;;;;;;5019447;28;20103;-76
2022/07/10 09:04:21;;;;;;;3.83;0.75;;;17.30;99.90;;;;;;5006119;28;19917;-77
2022/07/10 09:06:47;;;;;;;3.30;0.65;;;17.40;99.90;;;;;;5023562;28;20077;-76
2022/07/10 09:09:13;;;;;;;5.95;0.80;;;17.40;99.90;;;;;;5023464;28;20045;-76
2022/07/10 09:11:42;;;;;;;3.00;0.65;;;17.40;99.90;;;;;;5022145;28;20049;-77
2022/07/10 09:14:11;;;;;;;2.25;0.82;;;17.40;99.90;;;;;;5024705;28;20057;-77
2022/07/10 09:16:42;;;;;;;5.75;1.23;;;17.40;99.90;;;;;;5026138;28;20053;-78
2022/07/10 09:19:16;;;;;;;5.20;0.80;;;17.30;99.90;;;;;;5008229;28;20041;-77
2022/07/10 09:21:43;;;;;;;5.05;1.00;;;17.20;99.90;;;;;;5021708;28;20156;-76
2022/07/10 09:24:08;;;;;;;4.05;0.90;;;17.10;99.90;;;;;;5021437;28;20053;-77
2022/07/10 09:26:38;;;;;;;4.57;0.85;;;16.90;99.90;;;;;;5020028;28;20428;-77
2022/07/10 09:29:09;;;;;;;3.58;0.85;;;17.00;99.90;;;;;;5024038;28;20128;-76
2022/07/10 09:31:58;;;;;;;4.88;0.85;;;17.00;99.90;;;;;;5023225;28;20124;-77
2022/07/10 09:34:41;;;;;;;3.83;1.00;;;16.90;99.90;;;;;;5023144;28;20041;-77
2022/07/10 09:37:29;;;;;;;7.15;1.00;;;16.70;99.90;;;;;;5019482;28;20038;-78
2022/07/10 09:40:06;;;;;;;3.72;1.00;;;16.40;99.90;;;;;;5028279;28;20034;-75
2022/07/10 09:42:37;;;;;;;2.90;1.02;;;16.30;99.90;;;;;;5023222;28;20909;-77
2022/07/10 09:45:12;;;;;;;4.50;1.42;;;16.20;99.90;;;;;;5028764;28;20077;-78
2022/07/10 09:47:43;;;;;;;3.15;1.20;;;16.10;99.90;;;;;;5021712;28;20088;-76
2022/07/10 09:50:36;;;;;;;4.38;1.13;;;16.10;99.90;;;;;;5021702;28;20077;-76
2022/07/10 09:53:06;;;;;;;5.40;1.20;;;16.10;99.90;;;;;;5026332;28;20069;-78
2022/07/10 09:55:37;;;;;;;3.30;1.00;;;16.00;99.90;;;;;;5018349;28;20541;-78
2022/07/10 09:58:07;;;;;;;5.57;1.30;;;15.90;99.90;;;;;;5018124;28;20038;-78
2022/07/10 10:00:37;;;;;;;4.28;1.25;;;15.90;99.90;;;;;;5027832;28;20095;-76
2022/07/10 10:03:04;;;;;;;3.97;1.23;;;15.90;99.90;;;;;;5024224;28;20084;-75
2022/07/10 10:05:42;;;;;;;4.72;1.45;;;15.80;99.90;;;;;;5012786;28;20050;-76
2022/07/10 10:08:17;;;;;;;3.03;1.20;;;15.80;99.90;;;;;;5023364;28;20132;-76
2022/07/10 10:10:48;;;;;;;4.22;1.27;;;15.90;99.90;;;;;;5014140;28;20091;-76
2022/07/10 10:13:20;;;;;;;2.22;1.17;;;15.90;99.90;;;;;;5001518;28;20045;-76
2022/07/10 10:15:51;;;;;;;7.13;1.52;;;16.10;99.90;;;;;;5017170;28;20042;-76
2022/07/10 10:18:24;;;;;;;5.85;1.38;;;16.20;99.90;;;;;;5018687;28;20556;-76
2022/07/10 10:20:54;;;;;;;5.35;1.63;;;16.40;99.90;;;;;;5022991;28;20113;-77
2022/07/10 10:23:22;;;;;;;7.07;1.50;;;16.60;99.90;;;;;;5011616;28;20072;-77
2022/07/10 10:25:54;;;;;;;7.63;1.75;;;16.80;99.90;;;;;;5021185;28;20049;-77
2022/07/10 10:28:23;;;;;;;5.88;1.85;;;17.00;99.90;;;;;;5004667;28;20038;-77
2022/07/10 10:30:53;;;;;;;7.70;1.85;;;17.00;99.90;;;;;;5019829;28;20045;-77
2022/07/10 10:33:34;;;;;;;6.68;1.70;;;17.00;99.90;;;;;;5019576;28;20045;-77
2022/07/10 10:36:02;;;;;;;5.97;1.92;;;16.90;99.90;;;;;;5011085;28;20042;-76
2022/07/10 10:38:49;;;;;;;5.28;1.88;;;16.80;99.90;;;;;;5018815;28;20371;-77
2022/07/10 10:41:38;;;;;;;6.55;1.70;;;16.70;99.90;;;;;;5030170;28;20037;-77
2022/07/10 10:44:16;;;;;;;5.30;1.80;;;16.70;99.90;;;;;;4998290;28;20033;-76
2022/07/10 10:46:54;;;;;;;9.80;1.80;;;16.70;99.90;;;;;;5016051;28;20041;-77
2022/07/10 10:49:25;;;;;;;4.90;1.63;;;16.80;99.90;;;;;;5018751;28;20421;-76
2022/07/10 10:51:56;;;;;;;4.97;1.77;;;17.10;99.90;;;;;;5004547;28;20034;-76
2022/07/10 10:54:22;;;;;;;8.27;2.00;;;17.30;99.90;;;;;;5019603;28;20042;-77
2022/07/10 10:57:11;;;;;;;3.58;1.40;;;17.40;99.90;;;;;;5008236;28;20167;-77
2022/07/10 10:59:53;;;;;;;6.45;1.52;;;17.30;99.90;;;;;;5025707;28;20049;-78
2022/07/10 11:02:27;;;;;;;5.38;1.38;;;17.10;99.90;;;;;;5019218;28;20434;-78
2022/07/10 11:05:12;;;;;;;5.28;1.38;;;17.00;99.90;;;;;;5019347;28;20067;-77
2022/07/10 11:07:58;;;;;;;7.15;1.75;;;17.10;99.90;;;;;;5019461;28;20494;-78
2022/07/10 11:10:32;;;;;;;6.32;1.70;;;17.20;99.90;;;;;;5019857;28;20092;-78
2022/07/10 11:13:07;;;;;;;7.75;1.38;;;17.30;99.90;;;;;;5014353;28;20057;-78
2022/07/10 11:15:36;;;;;;;4.03;1.40;;;17.50;99.90;;;;;;5033335;28;20140;-77
2022/07/10 11:18:16;;;;;;;4.90;1.25;;;17.70;99.90;;;;;;5030033;28;20063;-77
2022/07/10 11:20:50;;;;;;;4.78;1.40;;;18.00;99.90;;;;;;5029962;28;20505;-77
2022/07/10 11:23:28;;;;;;;5.72;1.17;;;18.30;99.90;;;;;;5011922;28;20091;-78
2022/07/10 11:26:01;;;;;;;4.90;1.40;;;18.40;99.90;;;;;;5011520;28;20034;-77
2022/07/10 11:28:58;;;;;;;4.35;1.45;;;18.40;99.90;;;;;;5028371;28;20565;-78
2022/07/10 11:31:25;;;;;;;4.07;1.40;;;18.30;99.90;;;;;;5024016;28;20053;-78
2022/07/10 11:33:55;;;;;;;5.45;1.75;;;18.00;99.90;;;;;;5029493;28;20135;-77
2022/07/10 11:36:28;;;;;;;4.18;1.23;;;17.90;99.90;;;;;;5017076;28;20046;-78
2022/07/10 11:39:13;;;;;;;4.10;1.50;;;17.80;99.90;;;;;;5029328;28;20037;-78
2022/07/10 11:41:44;;;;;;;6.60;1.30;;;18.00;99.90;;;;;;5028148;28;20045;-79
2022/07/10 11:44:15;;;;;;;3.08;0.90;;;18.20;99.90;;;;;;5029503;28;20033;-77
2022/07/10 11:46:44;;;;;;;6.18;1.20;;;18.30;99.90;;;;;;5028561;28;20048;-78
2022/07/10 11:49:10;;;;;;;4.43;1.23;;;18.40;99.90;;;;;;5029636;28;20077;-78
2022/07/10 11:51:40;;;;;;;4.22;1.45;;;18.50;99.90;;;;;;5029370;28;20050;-78
2022/07/10 11:54:15;;;;;;;5.13;1.30;;;18.50;99.90;;;;;;5029080;28;20084;-77
2022/07/10 11:56:51;;;;;;;4.75;1.10;;;18.50;99.90;;;;;;5012819;28;20042;-78
2022/07/10 11:59:19;;;;;;;4.72;1.30;;;18.50;99.90;;;;;;5029737;28;20590;-77
2022/07/10 12:01:50;;;;;;;4.45;1.08;;;18.60;99.90;;;;;;5029300;28;20490;-78
2022/07/10 12:04:18;;;;;;;4.20;1.30;;;18.50;99.90;;;;;;5028653;28;20045;-78
2022/07/10 12:06:46;;;;;;;4.97;1.20;;;18.40;99.90;;;;;;5012827;28;20398;-78
2022/07/10 12:09:14;;;;;;;5.05;1.25;;;18.20;99.90;;;;;;5029549;28;20105;-78
2022/07/10 12:11:41;;;;;;;4.72;1.10;;;18.10;99.90;;;;;;5012434;28;20073;-77
2022/07/10 12:14:11;;;;;;;5.35;1.20;;;18.10;99.90;;;;;;5028812;28;20058;-78
2022/07/10 12:16:38;;;;;;;3.63;1.50;;;18.00;99.90;;;;;;5028998;28;20562;-78
2022/07/10 12:19:06;;;;;;;4.93;1.23;;;18.00;99.90;;;;;;5028720;28;20087;-78
2022/07/10 12:21:32;;;;;;;5.25;1.30;;;18.20;99.90;;;;;;5011850;28;20429;-77
2022/07/10 12:23:59;;;;;;;5.55;1.60;;;18.30;99.90;;;;;;5028446;28;20490;-78
2022/07/10 12:26:35;;;;;;;5.70;1.70;;;18.40;99.90;;;;;;5028945;28;20041;-78
2022/07/10 12:29:02;;;;;;;5.07;1.20;;;18.50;99.90;;;;;;5032344;28;20069;-77
2022/07/10 12:31:39;;;;;;;5.68;1.58;;;18.60;99.90;;;;;;5033041;28;20041;-77
2022/07/10 12:34:06;;;;;;;6.05;1.42;;;18.60;99.90;;;;;;5047646;28;20046;-77
2022/07/10 12:36:52;;;;;;;3.85;1.40;;;18.50;99.90;;;;;;5032120;28;20501;-77
2022/07/10 12:39:21;;;;;;;7.07;1.42;;;18.40;99.90;;;;;;5031066;28;20045;-78
2022/07/10 12:41:57;;;;;;;7.22;1.50;;;18.40;99.90;;;;;;5032065;28;20056;-77
2022/07/10 12:44:42;;;;;;;5.83;1.33;;;18.30;99.90;;;;;;5032504;28;20053;-78
2022/07/10 12:47:11;;;;;;;6.93;1.38;;;18.30;99.90;;;;;;5031442;28;20045;-79
2022/07/10 12:50:03;;;;;;;3.67;1.25;;;18.30;99.90;;;;;;5032488;28;20045;-78
2022/07/10 12:52:31;;;;;;;6.35;1.40;;;18.10;99.90;;;;;;5030467;28;20045;-78
2022/07/10 12:55:15;;;;;;;4.00;1.10;;;17.90;99.90;;;;;;5032001;28;20045;-80
2022/07/10 12:57:57;;;;;;;6.85;1.40;;;17.60;99.90;;;;;;5032174;28;20037;-78
2022/07/10 13:00:30;;;;;;;4.55;1.40;;;17.40;99.90;;;;;;5030915;28;20071;-78
2022/07/10 13:03:06;;;;;;;3.88;1.10;;;17.30;99.90;;;;;;5029636;28;20045;-78